Terminal Aerodrome Forecast
Issued by NWS

Home | Current Version | Previous Version | Text Only | Print | Product List | Glossary Off
Versions: 1 2 3 4 5 6 7 8 9 10 11 12 13 14 15 16 17 18 19

000
FTUS43 KMPX 272339
TAFRNH
TAF
KRNH 272339Z 2800/2824 25006KT P6SM FEW250
     FM280100 00000KT P6SM SKC
     FM280900 16005KT P6SM BKN250
     FM281500 18013G20KT P6SM SCT120 BKN250
     FM281700 18017G25KT P6SM SCT060 BKN250=

USA.gov is the U.S. government's official web portal to all federal, state and local government web resources and services.